Time;durP1;ratioP1;P1;durP2;ratioP2;P2;SDS_P1;SDS_P2;PMS_P1;PMS_P2;Temp;Humidity;BMP_temperature;BMP_pressure;BME280_temperature;BME280_humidity;BME280_pressure;Samples;Min_cycle;Max_cycle;Signal;HPM_P1;HPM_P2
2021/08/12 00:00:47;;;;;;;19.43;5.37;;;;;;;12.75;70.89;99386.57;2267000;78;21074;-74
2021/08/12 00:03:51;;;;;;;19.17;5.42;;;;;;;12.72;70.84;99393.82;2226681;78;21478;-62
2021/08/12 00:06:52;;;;;;;23.95;7.17;;;;;;;12.53;70.85;99400.19;2264287;78;20968;-62
2021/08/12 00:09:55;;;;;;;20.67;6.33;;;;;;;12.38;71.04;99398.47;2256719;78;21111;-73
2021/08/12 00:12:56;;;;;;;23.87;6.72;;;;;;;12.34;71.15;99399.58;2262989;78;21063;-62
2021/08/12 00:15:59;;;;;;;23.52;6.10;;;;;;;12.35;71.32;99402.59;2260316;78;21027;-73
2021/08/12 00:19:01;;;;;;;22.48;7.00;;;;;;;12.34;71.34;99401.77;2259106;78;21498;-62
2021/08/12 00:22:02;;;;;;;22.87;5.87;;;;;;;12.27;71.38;99401.27;2263789;78;21038;-62
2021/08/12 00:25:04;;;;;;;21.27;5.63;;;;;;;12.25;71.40;99407.55;2256895;78;20995;-61
2021/08/12 00:28:05;;;;;;;22.03;5.30;;;;;;;12.27;71.17;99404.38;2260604;78;21007;-62
2021/08/12 00:31:07;;;;;;;23.47;6.13;;;;;;;12.23;71.01;99412.91;2258496;78;21027;-73
2021/08/12 00:34:09;;;;;;;19.40;5.58;;;;;;;12.20;71.37;99409.62;2255702;78;21630;-62
2021/08/12 00:37:10;;;;;;;17.57;5.20;;;;;;;12.16;71.71;99416.83;2257499;78;21003;-62
2021/08/12 00:40:11;;;;;;;20.40;6.37;;;;;;;12.11;71.77;99418.41;2259913;78;21494;-62
2021/08/12 00:43:13;;;;;;;15.13;4.17;;;;;;;12.16;71.63;99418.62;2255958;78;20996;-62
2021/08/12 00:46:15;;;;;;;16.02;4.58;;;;;;;12.12;71.86;99417.94;2266012;77;20992;-62
2021/08/12 00:49:16;;;;;;;24.85;7.62;;;;;;;12.13;71.94;99413.06;2256577;78;21003;-73
2021/08/12 00:52:18;;;;;;;17.70;4.50;;;;;;;12.13;71.94;99413.06;2262019;78;21012;-65
2021/08/12 00:55:19;;;;;;;22.77;7.20;;;;;;;12.19;72.38;99411.86;2263826;78;21638;-62
2021/08/12 00:58:20;;;;;;;21.27;6.53;;;;;;;12.12;72.24;99416.17;2257212;78;21014;-68
2021/08/12 01:01:22;;;;;;;25.17;7.77;;;;;;;11.98;71.81;99411.31;2262563;78;21460;-61
2021/08/12 01:04:23;;;;;;;22.32;6.85;;;;;;;11.95;72.35;99411.02;2260038;78;21019;-61
2021/08/12 01:07:25;;;;;;;18.32;5.00;;;;;;;11.96;72.67;99414.03;2265686;78;21000;-61
2021/08/12 01:10:26;;;;;;;20.90;5.20;;;;;;;11.97;72.26;99415.73;2263227;78;20988;-61
2021/08/12 01:13:27;;;;;;;18.57;4.47;;;;;;;11.88;72.38;99414.45;2267441;78;21003;-70
2021/08/12 01:16:29;;;;;;;17.43;4.60;;;;;;;11.82;71.96;99423.97;2264112;78;20999;-61
2021/08/12 01:19:31;;;;;;;46.05;12.43;;;;;;;11.77;72.12;99419.47;2263652;78;21530;-62
2021/08/12 01:22:32;;;;;;;35.85;10.18;;;;;;;11.71;71.96;99418.03;2258468;78;21042;-62
2021/08/12 01:25:34;;;;;;;35.20;10.80;;;;;;;11.72;72.19;99422.80;2253151;78;20996;-61
2021/08/12 01:28:35;;;;;;;44.45;13.03;;;;;;;11.73;72.46;99428.45;2257837;78;21018;-61
2021/08/12 01:31:37;;;;;;;29.90;10.10;;;;;;;11.77;72.43;99433.44;2259653;78;20996;-61
2021/08/12 01:34:39;;;;;;;30.93;9.10;;;;;;;11.76;72.30;99439.63;2262296;78;21003;-73
2021/08/12 01:37:41;;;;;;;19.50;5.87;;;;;;;11.70;72.29;99441.29;2261522;78;21553;-62
2021/08/12 01:40:43;;;;;;;23.57;7.05;;;;;;;11.63;72.44;99438.63;2260977;78;20965;-61
2021/08/12 01:43:44;;;;;;;22.95;5.72;;;;;;;11.57;72.54;99437.18;2260417;78;20996;-73
2021/08/12 01:46:47;;;;;;;21.35;7.03;;;;;;;11.59;72.53;99440.59;2255666;78;21051;-61
2021/08/12 01:49:49;;;;;;;20.23;5.85;;;;;;;11.57;72.44;99443.75;2227354;78;20988;-61
2021/08/12 01:52:50;;;;;;;19.07;5.20;;;;;;;11.52;72.08;99440.99;2255232;78;21024;-73
2021/08/12 01:55:51;;;;;;;20.92;6.08;;;;;;;11.42;72.54;99444.14;2265401;78;20968;-72
2021/08/12 01:58:53;;;;;;;20.73;6.20;;;;;;;11.38;72.80;99437.83;2257302;78;21015;-61
2021/08/12 02:01:54;;;;;;;27.87;9.45;;;;;;;11.43;72.71;99439.72;2255391;78;21004;-61
2021/08/12 02:04:56;;;;;;;31.02;9.40;;;;;;;11.44;73.03;99434.38;2260263;78;21011;-61
2021/08/12 02:07:57;;;;;;;27.42;8.25;;;;;;;11.49;73.02;99436.75;2263997;78;21561;-61
2021/08/12 02:10:59;;;;;;;22.90;7.25;;;;;;;11.54;72.87;99440.45;2264388;77;21121;-62
2021/08/12 02:14:00;;;;;;;24.47;7.57;;;;;;;11.48;72.58;99439.02;2267578;78;21450;-62
2021/08/12 02:17:01;;;;;;;21.03;5.63;;;;;;;11.41;72.50;99444.22;2266935;78;20999;-61
2021/08/12 02:20:04;;;;;;;21.42;5.53;;;;;;;11.33;72.74;99439.38;2264566;78;21521;-61
2021/08/12 02:23:05;;;;;;;23.65;7.37;;;;;;;11.25;73.05;99446.84;2258918;78;21004;-61
2021/08/12 02:26:06;;;;;;;26.77;7.28;;;;;;;11.29;73.39;99440.46;2264899;78;21031;-62
2021/08/12 02:29:08;;;;;;;21.05;5.60;;;;;;;11.32;73.11;99442.08;2264349;78;21032;-73
2021/08/12 02:32:09;;;;;;;21.85;6.60;;;;;;;11.23;73.00;99446.05;2262982;78;21030;-61
2021/08/12 02:35:11;;;;;;;19.17;5.50;;;;;;;11.04;73.36;99448.34;2261814;78;21030;-61
2021/08/12 02:38:12;;;;;;;19.37;4.70;;;;;;;11.01;73.56;99445.89;2265791;78;20991;-61
2021/08/12 02:41:14;;;;;;;20.72;6.45;;;;;;;10.98;73.37;99447.37;2264940;78;21465;-61
2021/08/12 02:44:15;;;;;;;16.27;4.60;;;;;;;11.03;73.76;99449.30;2262708;78;21000;-62
2021/08/12 02:47:16;;;;;;;19.85;5.90;;;;;;;11.12;73.93;99447.09;2259263;78;21043;-61
2021/08/12 02:50:18;;;;;;;21.48;6.28;;;;;;;11.12;73.68;99443.16;2254139;78;20952;-61
2021/08/12 02:53:19;;;;;;;18.40;4.87;;;;;;;11.12;73.84;99445.33;2263516;78;21078;-61
2021/08/12 02:56:21;;;;;;;23.43;6.10;;;;;;;11.13;73.40;99446.17;2255040;78;21008;-73
2021/08/12 02:59:22;;;;;;;21.35;5.95;;;;;;;11.07;73.24;99446.86;2264231;78;21018;-61
2021/08/12 03:02:23;;;;;;;22.77;5.47;;;;;;;11.04;73.59;99445.72;2261449;78;21502;-61
2021/08/12 03:05:25;;;;;;;25.12;6.20;;;;;;;10.98;73.85;99444.75;2255360;78;20941;-61
2021/08/12 03:08:26;;;;;;;19.80;5.60;;;;;;;10.94;73.86;99451.55;2257198;78;21491;-62
2021/08/12 03:11:28;;;;;;;21.53;5.90;;;;;;;10.95;73.43;99447.98;2254551;78;20996;-61
2021/08/12 03:14:30;;;;;;;17.57;5.07;;;;;;;10.84;73.19;99456.43;2260232;78;21036;-62
2021/08/12 03:17:32;;;;;;;24.12;7.70;;;;;;;10.78;73.78;99450.20;2261896;78;20996;-61
2021/08/12 03:20:33;;;;;;;25.73;8.43;;;;;;;10.82;73.81;99449.95;2254153;78;21494;-61
2021/08/12 03:23:35;;;;;;;26.73;7.30;;;;;;;10.78;74.10;99452.34;2263984;78;20996;-62
2021/08/12 03:26:36;;;;;;;23.25;6.55;;;;;;;10.84;74.35;99452.02;2259328;78;21023;-61
2021/08/12 03:29:40;;;;;;;20.08;5.35;;;;;;;10.87;73.94;99454.48;2262318;78;21001;-61
2021/08/12 03:32:41;;;;;;;19.42;4.92;;;;;;;10.90;73.56;99459.59;2236024;78;20976;-63
2021/08/12 03:35:43;;;;;;;18.53;5.17;;;;;;;10.91;73.86;99468.30;2254036;78;20952;-75
2021/08/12 03:38:44;;;;;;;16.90;4.37;;;;;;;10.91;73.86;99468.30;2252384;78;21990;-63
2021/08/12 03:41:46;;;;;;;23.10;7.33;;;;;;;11.01;74.07;99466.05;2262240;78;21019;-63
2021/08/12 03:44:47;;;;;;;24.12;7.08;;;;;;;11.15;73.69;99467.48;2261045;78;21067;-75
2021/08/12 03:47:49;;;;;;;21.42;5.37;;;;;;;11.06;73.62;99467.51;2257649;78;21104;-64
2021/08/12 03:50:50;;;;;;;19.02;5.03;;;;;;;11.01;73.49;99480.48;2263469;78;21541;-74
2021/08/12 03:53:52;;;;;;;19.57;5.67;;;;;;;10.82;73.37;99478.81;2263257;78;21039;-63
2021/08/12 03:56:53;;;;;;;19.12;5.03;;;;;;;10.82;73.61;99484.51;2262902;78;21069;-63
2021/08/12 03:59:55;;;;;;;17.07;5.20;;;;;;;10.79;73.61;99486.85;2262620;78;20960;-63
2021/08/12 04:02:56;;;;;;;19.67;5.53;;;;;;;10.86;73.75;99482.11;2257119;78;20992;-63
2021/08/12 04:05:57;;;;;;;19.77;5.27;;;;;;;10.95;74.01;99481.66;2260865;78;21447;-71
2021/08/12 04:08:59;;;;;;;25.07;5.67;;;;;;;11.09;74.13;99483.53;2262393;78;21113;-63
2021/08/12 04:12:01;;;;;;;21.13;5.63;;;;;;;11.27;74.03;99481.25;2251125;78;21521;-63
2021/08/12 04:15:02;;;;;;;22.82;6.78;;;;;;;11.42;73.81;99488.80;2263286;78;21054;-63
2021/08/12 04:18:04;;;;;;;16.33;4.80;;;;;;;11.55;73.34;99481.09;2260832;78;21486;-63
2021/08/12 04:21:06;;;;;;;18.83;4.33;;;;;;;11.69;73.02;99487.36;2263666;78;20968;-63
2021/08/12 04:24:08;;;;;;;22.55;5.42;;;;;;;11.86;72.91;99489.06;2263355;78;21557;-68
2021/08/12 04:27:10;;;;;;;18.93;5.27;;;;;;;12.22;72.90;99491.89;2262770;78;21007;-63
2021/08/12 04:30:11;;;;;;;20.90;5.17;;;;;;;12.55;72.68;99490.87;2258227;78;21023;-63
2021/08/12 04:33:13;;;;;;;21.40;6.00;;;;;;;12.76;71.82;99492.72;2256735;78;21034;-62
2021/08/12 04:36:14;;;;;;;19.95;6.45;;;;;;;12.81;71.78;99494.59;2266942;78;20976;-72
2021/08/12 04:39:16;;;;;;;22.80;6.43;;;;;;;12.92;72.08;99495.28;2260125;78;21011;-62
2021/08/12 04:42:18;;;;;;;22.62;6.87;;;;;;;13.13;72.46;99487.84;2259964;78;21012;-63
2021/08/12 04:45:20;;;;;;;25.35;7.35;;;;;;;13.48;72.54;99486.19;2254602;78;21011;-63
2021/08/12 04:48:21;;;;;;;21.17;6.78;;;;;;;13.69;71.62;99483.52;2262625;78;20960;-63
2021/08/12 04:51:23;;;;;;;20.55;6.65;;;;;;;13.83;71.74;99490.56;2260095;78;21035;-73
2021/08/12 04:54:25;;;;;;;23.17;7.00;;;;;;;14.02;71.64;99493.30;2255777;78;21004;-63
2021/08/12 04:57:26;;;;;;;24.43;7.53;;;;;;;14.41;71.87;99495.63;2265349;78;21030;-63
2021/08/12 05:00:27;;;;;;;27.67;7.10;;;;;;;14.68;71.47;99492.97;2261713;78;20980;-72
2021/08/12 05:03:29;;;;;;;22.53;7.60;;;;;;;14.99;71.68;99497.47;2267730;78;21058;-70
2021/08/12 05:06:30;;;;;;;28.43;8.20;;;;;;;15.26;71.08;99495.20;2262942;78;20976;-70
2021/08/12 05:09:32;;;;;;;26.37;7.63;;;;;;;15.57;71.21;99495.66;2261624;78;21125;-72
2021/08/12 05:12:33;;;;;;;22.50;7.90;;;;;;;16.02;70.23;99492.02;2259441;78;21023;-63
2021/08/12 05:15:35;;;;;;;23.45;8.08;;;;;;;16.02;70.23;99492.02;2261594;78;21671;-62
2021/08/12 05:18:36;;;;;;;21.60;8.10;;;;;;;16.27;69.80;99495.50;2261302;78;21043;-72
2021/08/12 05:21:38;;;;;;;24.20;7.78;;;;;;;16.44;69.38;99500.88;2251172;78;21058;-71
2021/08/12 05:24:39;;;;;;;24.10;7.85;;;;;;;16.56;69.15;99505.72;2259842;78;21022;-70
2021/08/12 05:27:40;;;;;;;21.90;7.63;;;;;;;16.60;68.71;99501.89;2253393;78;21024;-62
2021/08/12 05:30:42;;;;;;;22.62;7.92;;;;;;;16.65;68.82;99509.48;2256578;78;21054;-64
2021/08/12 05:33:43;;;;;;;21.27;8.17;;;;;;;16.77;68.80;99508.56;2260612;78;22282;-63
2021/08/12 05:36:45;;;;;;;21.90;7.90;;;;;;;17.00;68.85;99509.48;2251493;78;21637;-71
2021/08/12 05:39:46;;;;;;;21.85;8.40;;;;;;;17.21;68.36;99510.96;2259922;78;21043;-64
2021/08/12 05:42:48;;;;;;;24.57;9.20;;;;;;;17.40;68.44;99520.13;2259958;78;21040;-65
2021/08/12 05:45:49;;;;;;;28.67;12.10;;;;;;;17.28;67.81;99522.78;2241837;78;21007;-64
2021/08/12 05:48:51;;;;;;;26.67;11.63;;;;;;;17.31;67.37;99517.23;2257470;78;21063;-63
2021/08/12 05:51:52;;;;;;;31.75;14.75;;;;;;;17.40;67.86;99524.95;2268303;77;21110;-71
2021/08/12 05:54:54;;;;;;;22.17;8.65;;;;;;;17.50;68.07;99529.05;2265287;78;21517;-71
2021/08/12 05:57:55;;;;;;;23.38;9.38;;;;;;;17.73;67.63;99521.92;2264101;78;21030;-71
2021/08/12 06:00:57;;;;;;;22.82;8.70;;;;;;;17.84;67.19;99527.21;2261156;78;21499;-72
2021/08/12 06:03:59;;;;;;;22.40;9.05;;;;;;;17.86;66.75;99530.20;2255974;78;20969;-71
2021/08/12 06:07:00;;;;;;;24.07;9.98;;;;;;;17.98;66.47;99523.45;2257359;78;21507;-63
2021/08/12 06:10:02;;;;;;;23.50;8.55;;;;;;;18.21;65.74;99524.73;2254992;77;21098;-71
2021/08/12 06:13:03;;;;;;;24.90;11.18;;;;;;;18.29;65.66;99528.11;2261538;78;21008;-71
2021/08/12 06:16:06;;;;;;;28.83;12.68;;;;;;;18.53;65.70;99529.20;2264863;78;20991;-71
2021/08/12 06:19:08;;;;;;;26.00;11.03;;;;;;;18.94;65.48;99526.74;2263810;78;21585;-70
2021/08/12 06:22:09;;;;;;;24.43;10.95;;;;;;;19.16;64.84;99530.56;2264698;78;20995;-71
2021/08/12 06:25:11;;;;;;;21.10;8.08;;;;;;;19.28;64.63;99535.80;2256644;78;21007;-71
2021/08/12 06:28:12;;;;;;;21.73;8.18;;;;;;;19.43;63.88;99541.64;2258363;78;21031;-69
